»·PEaware :: SWA1705 KLAS-KSNA

SWA1705 :: KLAS-KSNA

FLIGHT INFORMATION

Flight Status: Arrived
Operator:
Southwest Airlines
More flights by this operator :: More flights under this callsign
Pilot: Cody B. (17747)
Aircraft: BOEING 737-800
(B738)
More flights by this aircraft type
Origin: KLAS McCarran Intl
United States
Destination: KSNA John Wayne-Orange Co
United States
More flights between these airports :: More routes between these airports
Route: +BOACH8 WHIGG FEYLA DSNEE2
File this flight plan on PilotEdge
Remarks:
Altitude:
(Current/Filed)
26,000ft
Speed:
(Current/Filed)
375kts
Departed: 09-Apr-18 02:03 PM
Arrived: 09-Apr-18 02:49 PM
Distance/Time
Traveled:
197nm/0:46
Distance/Time
To Go:
Arrived

Flight Plot

Page will automatically refresh every two minutes.

Flight plan parsing failed; only flown route is shown


Map Options




Map Legend


Flown Route
Filed Route
Departure Airport
Arrival Airport
Navaid (VOR, NDB)
Fix

Horizontal Profiles

Position Reports

Time Latitude Longitude Heading Altitude Ground
Speed
09-Apr-18 13:22 36.079928 -115.147116 57 2096ft 0kts
09-Apr-18 13:23 36.079928 -115.147116 57 2096ft 0kts
09-Apr-18 13:24 36.079928 -115.147116 57 2096ft 0kts
09-Apr-18 13:25 36.079928 -115.147116 57 2096ft 0kts
09-Apr-18 13:26 36.079928 -115.147116 57 2096ft 0kts
09-Apr-18 13:27 36.079928 -115.147116 57 2096ft 0kts
09-Apr-18 13:28 36.079928 -115.147116 57 2096ft 0kts
09-Apr-18 13:29 36.079928 -115.147116 57 2096ft 0kts
09-Apr-18 13:30 36.079928 -115.147116 57 2096ft 0kts
09-Apr-18 13:31 36.079928 -115.147116 57 2096ft 0kts
09-Apr-18 13:32 36.079928 -115.147116 57 2096ft 0kts
09-Apr-18 13:33 36.079928 -115.147116 57 2096ft 0kts
09-Apr-18 13:34 36.079928 -115.147116 57 2096ft 0kts
09-Apr-18 13:35 36.079928 -115.147116 57 2096ft 0kts
09-Apr-18 13:36 36.079928 -115.147116 57 2096ft 0kts
09-Apr-18 13:37 36.079928 -115.147116 57 2096ft 0kts
09-Apr-18 13:38 36.079928 -115.147116 57 2096ft 0kts
09-Apr-18 13:39 36.079928 -115.147116 57 2096ft 0kts
09-Apr-18 13:40 36.079928 -115.147116 57 2096ft 0kts
09-Apr-18 13:41 36.079928 -115.147116 57 2096ft 0kts
09-Apr-18 13:42 36.079928 -115.147116 57 2096ft 0kts
09-Apr-18 13:43 36.079778 -115.147461 56 2098ft 2kts
09-Apr-18 13:44 36.079906 -115.147855 155 2099ft 0kts
09-Apr-18 13:45 36.079906 -115.147855 155 2099ft 0kts
09-Apr-18 13:46 36.079906 -115.147855 155 2099ft 0kts
09-Apr-18 13:47 36.079906 -115.147855 155 2099ft 0kts
09-Apr-18 13:48 36.079735 -115.147770 158 2100ft 2kts
09-Apr-18 13:49 36.079233 -115.147494 155 2100ft 0kts
09-Apr-18 13:50 36.079127 -115.147435 155 2101ft 1kts
09-Apr-18 13:51 36.078445 -115.146070 94 2098ft 11kts
09-Apr-18 13:52 36.078235 -115.142333 89 2086ft 9kts
09-Apr-18 13:53 36.078237 -115.139059 90 2076ft 9kts
09-Apr-18 13:54 36.078248 -115.134375 90 2062ft 15kts
09-Apr-18 13:55 36.078256 -115.129066 90 2047ft 16kts
09-Apr-18 13:56 36.078259 -115.123627 90 2036ft 10kts
09-Apr-18 13:57 36.077393 -115.121466 142 2037ft 4kts
09-Apr-18 13:58 36.077280 -115.121395 163 2037ft 0kts
09-Apr-18 13:59 36.077254 -115.121386 164 2037ft 0kts
09-Apr-18 14:00 36.076807 -115.121318 177 2037ft 3kts
09-Apr-18 14:01 36.076397 -115.122316 269 2038ft 8kts
09-Apr-18 14:02 36.076380 -115.149374 269 2145ft 187kts
09-Apr-18 14:03 36.075814 -115.220966 270 4754ft 240kts
09-Apr-18 14:04 36.027183 -115.283874 195 6968ft 289kts
09-Apr-18 14:05 35.949467 -115.309086 188 7849ft 293kts
09-Apr-18 14:06 35.872290 -115.344575 203 10755ft 322kts
09-Apr-18 14:07 35.786034 -115.387253 203 13682ft 345kts
09-Apr-18 14:08 35.695390 -115.432007 204 16604ft 360kts
09-Apr-18 14:09 35.602743 -115.477464 204 19192ft 372kts
09-Apr-18 14:10 35.506626 -115.527855 219 21527ft 379kts
09-Apr-18 14:11 35.435065 -115.622216 231 23658ft 384kts
09-Apr-18 14:12 35.364723 -115.716630 230 25530ft 393kts
09-Apr-18 14:13 35.288924 -115.818728 231 26193ft 425kts
09-Apr-18 14:14 35.207464 -115.928212 229 26183ft 439kts
09-Apr-18 14:15 35.124598 -116.032159 229 26184ft 439kts
09-Apr-18 14:16 35.039837 -116.138498 228 26184ft 439kts
09-Apr-18 14:17 34.954814 -116.244911 229 26184ft 439kts
09-Apr-18 14:18 34.872704 -116.347939 229 26142ft 428kts
09-Apr-18 14:19 34.793857 -116.447137 230 26148ft 390kts
09-Apr-18 14:20 34.718244 -116.543104 230 26125ft 396kts
09-Apr-18 14:21 34.636236 -116.631860 221 24699ft 391kts
09-Apr-18 14:22 34.567198 -116.698323 221 23407ft 384kts
09-Apr-18 14:23 34.485800 -116.779627 226 21807ft 372kts
09-Apr-18 14:24 34.400360 -116.880218 226 19783ft 364kts
09-Apr-18 14:25 34.328696 -116.963825 225 17987ft 355kts
09-Apr-18 14:26 34.256617 -117.043570 214 16183ft 351kts
09-Apr-18 14:27 34.173011 -117.102101 210 14400ft 347kts
09-Apr-18 14:28 34.086396 -117.148742 203 12613ft 337kts
09-Apr-18 14:29 34.016118 -117.185791 203 11122ft 329kts
09-Apr-18 14:30 33.954537 -117.254843 229 9291ft 281kts
09-Apr-18 14:31 33.905734 -117.323537 229 8073ft 266kts
09-Apr-18 14:32 33.857800 -117.391373 229 8026ft 271kts
09-Apr-18 14:33 33.822705 -117.468343 261 8049ft 270kts
09-Apr-18 14:34 33.811387 -117.554420 262 6858ft 254kts
09-Apr-18 14:35 33.806602 -117.635793 295 5595ft 233kts
09-Apr-18 14:36 33.837535 -117.702009 301 4758ft 232kts
09-Apr-18 14:37 33.855754 -117.775800 247 3411ft 243kts
09-Apr-18 14:38 33.809649 -117.815692 248 3064ft 194kts
09-Apr-18 14:39 33.837928 -117.850612 4 3022ft 199kts
09-Apr-18 14:40 33.885213 -117.822411 32 2981ft 192kts
09-Apr-18 14:41 33.912308 -117.775396 111 2998ft 186kts
09-Apr-18 14:42 33.869234 -117.754338 189 2982ft 194kts
09-Apr-18 14:43 33.821289 -117.776326 209 2990ft 182kts
09-Apr-18 14:44 33.780114 -117.802484 211 2265ft 154kts
09-Apr-18 14:45 33.743111 -117.826015 212 1443ft 148kts
09-Apr-18 14:46 33.707800 -117.848454 211 653ft 140kts
09-Apr-18 14:47 33.675818 -117.868760 209 53ft 58kts
09-Apr-18 14:48 33.669352 -117.871852 133 57ft 0kts
09-Apr-18 14:49 33.669203 -117.871633 121 57ft 2kts
09-Apr-18 14:50 33.669566 -117.870483 40 55ft 2kts
09-Apr-18 14:51 33.671140 -117.868866 39 53ft 10kts
09-Apr-18 14:52 33.673649 -117.866786 28 50ft 12kts
09-Apr-18 14:53 33.675494 -117.865600 30 48ft 1kts
09-Apr-18 14:54 33.675563 -117.865454 91 48ft 0kts
09-Apr-18 14:55 33.675383 -117.864909 116 47ft 0kts
09-Apr-18 14:56 33.675383 -117.864909 116 47ft 0kts
09-Apr-18 14:57 33.675383 -117.864909 116 47ft 0kts

Navigation Log

Ident Type
Flight plan parsing failed, navigation log unavailable